ADDS METAR Data INFO
IDs: Format: Raw Decoded Include TAF

Data at: 2253 UTC 16 Jan 2018

KSCR 162235Z AUTO 00000KT 10SM CLR 04/M05 A3033 RMK AO2 T00411053
KSCR 162215Z AUTO 00000KT 10SM CLR 06/M05 A3034 RMK AO2 T00601055
KSCR 162155Z AUTO 00000KT 10SM CLR 07/M06 A3033 RMK AO2 T00701061
KSCR 162135Z AUTO 21003KT 10SM CLR 08/M06 A3034 RMK AO2 T00751063
KSCR 162115Z AUTO 20004KT 10SM CLR 08/M07 A3033 RMK AO2 T00761066
KSCR 162055Z AUTO 18004KT 10SM CLR 08/M07 A3033 RMK AO2 T00771067
KSCR 162035Z AUTO 17005KT 10SM CLR 08/M07 A3033 RMK AO2 T00751069
KSCR 162015Z AUTO 19004KT 10SM CLR 07/M07 A3033 RMK AO2 T00741072
KSCR 161955Z AUTO 00000KT 10SM CLR 08/M07 A3034 RMK AO2 T00751074
KSCR 161935Z AUTO 20004KT 10SM CLR 07/M07 A3034 RMK AO2 T00741075
KSCR 161915Z AUTO 00000KT 10SM CLR 07/M08 A3035 RMK AO2 T00681078
KSCR 161855Z AUTO 18003KT 10SM CLR 07/M08 A3036 RMK AO2 T00691080
KSCR 161815Z AUTO 27003KT 10SM CLR 06/M08 A3038 RMK AO2 T00611081
KSCR 161755Z AUTO 24003KT 10SM CLR 06/M08 A3039 RMK AO2 T00631082 10063 21092
KSCR 161735Z AUTO 20003KT 10SM CLR 06/M09 A3040 RMK AO2 T00551088
KSCR 161715Z AUTO 00000KT 10SM CLR 05/M09 A3042 RMK AO2 T00511092
KSCR 161655Z AUTO 23003KT 10SM CLR 05/M10 A3044 RMK AO2 T00461096
KSCR 161635Z AUTO 21004KT 10SM CLR 04/M09 A3045 RMK AO2 T00421095
KSCR 161615Z AUTO 17004KT 10SM CLR 04/M10 A3046 RMK AO2 T00381097
KSCR 161555Z AUTO 23003KT 10SM CLR 03/M11 A3047 RMK AO2 T00341108
KSCR 161535Z AUTO 00000KT 10SM CLR 02/M10 A3047 RMK AO2 T00231097
KSCR 161515Z AUTO 00000KT 10SM CLR 01/M08 A3047 RMK AO2 T00121080
KSCR 161455Z AUTO 00000KT 10SM CLR 00/M07 A3047 RMK AO2 T00001073
KSCR 161435Z AUTO 00000KT 10SM CLR M01/M08 A3047 RMK AO2 T10111085
KSCR 161415Z AUTO 00000KT 10SM CLR M02/M08 A3047 RMK AO2 T10241084
KSCR 161355Z AUTO 00000KT 10SM CLR M04/M09 A3047 RMK AO2 T10401089
KSCR 161335Z AUTO 00000KT 10SM CLR M06/M09 A3046 RMK AO2 T10571088
KSCR 161315Z AUTO 00000KT 10SM CLR M07/M10 A3045 RMK AO2 T10721097
KSCR 161255Z AUTO 00000KT 10SM CLR M08/M10 A3044 RMK AO2 T10831100
KSCR 161235Z AUTO 00000KT 10SM CLR M09/M11 A3043 RMK AO2 T10911106
KSCR 161215Z AUTO 00000KT 10SM CLR M09/M11 A3043 RMK AO2 T10921106
KSCR 161155Z AUTO 00000KT 10SM CLR M09/M10 A3043 RMK AO2 T10911105 11073 21095
KSCR 161135Z AUTO 00000KT 10SM CLR M09/M10 A3042 RMK AO2 T10901105
KSCR 161115Z AUTO 00000KT 10SM CLR M09/M11 A3043 RMK AO2 T10911106
KSCR 161055Z AUTO 00000KT 10SM CLR M09/M10 A3043 RMK AO2 T10901105
KSCR 161035Z AUTO 00000KT 10SM CLR M09/M11 A3043 RMK AO2 T10901109
KSCR 161015Z AUTO 00000KT 10SM CLR M09/M10 A3043 RMK AO2 T10901105
KSCR 160955Z AUTO 00000KT 10SM CLR M09/M10 A3043 RMK AO2 T10901105
KSCR 160935Z AUTO 00000KT 10SM CLR M09/M10 A3043 RMK AO2 T10901105
KSCR 160915Z AUTO 00000KT 10SM CLR M08/M10 A3043 RMK AO2 T10851105
KSCR 160855Z AUTO 00000KT 10SM CLR M09/M10 A3044 RMK AO2 T10861105
KSCR 160835Z AUTO 00000KT 10SM CLR M08/M10 A3044 RMK AO2 T10841105
KSCR 160815Z AUTO 00000KT 10SM CLR M08/M10 A3044 RMK AO2 T10831104
KSCR 160755Z AUTO 00000KT 10SM CLR M09/M10 A3044 RMK AO2 T10861103
KSCR 160735Z AUTO 00000KT 10SM CLR M08/M10 A3044 RMK AO2 T10811103
KSCR 160715Z AUTO 00000KT 10SM CLR M08/M10 A3044 RMK AO2 T10771102
KSCR 160655Z AUTO 00000KT 10SM CLR M08/M10 A3043 RMK AO2 T10811103
KSCR 160635Z AUTO 00000KT 10SM CLR M07/M10 A3044 RMK AO2 T10751101
KSCR 160615Z AUTO 00000KT 10SM CLR M07/M10 A3044 RMK AO2 T10751100
KSCR 160555Z AUTO 00000KT 10SM CLR M07/M10 A3044 RMK AO2 T10721100 11035 21075 400301095
KSCR 160535Z AUTO 00000KT 10SM CLR M07/M10 A3044 RMK AO2 T10701101
KSCR 160515Z AUTO 00000KT 10SM CLR M07/M10 A3045 RMK AO2 T10721098
KSCR 160455Z AUTO 00000KT 10SM CLR M07/M10 A3045 RMK AO2 T10691101
KSCR 160435Z AUTO 00000KT 10SM CLR M07/M10 A3045 RMK AO2 T10681101
KSCR 160415Z AUTO 00000KT 10SM CLR M06/M10 A3046 RMK AO2 T10621100
KSCR 160355Z AUTO 00000KT 10SM CLR M06/M10 A3046 RMK AO2 T10621100
KSCR 160335Z AUTO 00000KT 10SM CLR M06/M10 A3046 RMK AO2 T10611101
KSCR 160315Z AUTO 00000KT 10SM CLR M06/M10 A3046 RMK AO2 T10591098
KSCR 160255Z AUTO 00000KT 10SM CLR M06/M10 A3046 RMK AO2 T10561098
KSCR 160235Z AUTO 00000KT 10SM CLR M05/M10 A3045 RMK AO2 T10551099
KSCR 160215Z AUTO 00000KT 10SM CLR M05/M10 A3046 RMK AO2 T10501097
KSCR 160155Z AUTO 00000KT 10SM CLR M05/M10 A3046 RMK AO2 T10541101
KSCR 160135Z AUTO 00000KT 10SM CLR M05/M10 A3046 RMK AO2 T10471105
KSCR 160115Z AUTO 00000KT 10SM CLR M05/M11 A3045 RMK AO2 T10501109
KSCR 160055Z AUTO 00000KT 10SM CLR M04/M10 A3045 RMK AO2 T10401100
KSCR 160035Z AUTO 00000KT 10SM CLR M03/M10 A3045 RMK AO2 T10351105
KSCR 160015Z AUTO 00000KT 10SM CLR M04/M10 A3044 RMK AO2 T10441105
KSCR 152355Z AUTO 00000KT 10SM CLR M04/M11 A3044 RMK AO2 T10361110 10030 21036
KSCR 152335Z AUTO 00000KT 10SM CLR M03/M11 A3043 RMK AO2 T10321114
KSCR 152315Z AUTO 00000KT 10SM CLR M03/M12 A3044 RMK AO2 T10301117
KSCR 152255Z AUTO 00000KT 10SM CLR M02/M12 A3044 RMK AO2 T10231119
KSCR 152235Z AUTO 00000KT 10SM CLR M01/M12 A3043 RMK AO2 T10061124
KSCR 152215Z AUTO 00000KT 10SM CLR 01/M13 A3042 RMK AO2 T00071134
KSCR 152155Z AUTO 00000KT 10SM CLR 02/M14 A3042 RMK AO2 T00211140
KSCR 152135Z AUTO 00000KT 10SM CLR 02/M15 A3043 RMK AO2 T00231146
KSCR 152115Z AUTO 00000KT 10SM CLR 03/M14 A3043 RMK AO2 T00261143
KSCR 152055Z AUTO 00000KT 10SM CLR 03/M14 A3042 RMK AO2 T00281140
KSCR 152035Z AUTO 00000KT 10SM CLR 03/M14 A3042 RMK AO2 T00261144
KSCR 152015Z AUTO 01003KT 10SM CLR 03/M14 A3042 RMK AO2 T00261143
KSCR 151955Z AUTO 36004KT 10SM CLR 03/M14 A3042 RMK AO2 T00261141
KSCR 151935Z AUTO 34004KT 10SM CLR 03/M14 A3042 RMK AO2 T00261140
KSCR 151915Z AUTO 03005KT 10SM CLR 02/M13 A3042 RMK AO2 T00181134
KSCR 151855Z AUTO 00000KT 10SM CLR 02/M14 A3045 RMK AO2 T00151140
KSCR 151835Z AUTO 00000KT 10SM CLR 01/M14 A3045 RMK AO2 T00111138
KSCR 151815Z AUTO 35003KT 10SM CLR 02/M12 A3045 RMK AO2 T00151124
KSCR 151755Z AUTO 32003KT 10SM CLR 01/M13 A3046 RMK AO2 T00061127 10006 21095
KSCR 151735Z AUTO 01004KT 10SM CLR 00/M11 A3046 RMK AO2 T00031115
KSCR 151715Z AUTO 03004KT 10SM CLR 00/M11 A3048 RMK AO2 T00001114
KSCR 151655Z AUTO 05007KT 10SM CLR M01/M12 A3049 RMK AO2 T10061124
KSCR 151635Z AUTO 02004KT 10SM CLR M01/M13 A3052 RMK AO2 T10141128
KSCR 151615Z AUTO 36006KT 10SM CLR M02/M14 A3052 RMK AO2 T10191136
KSCR 151555Z AUTO 01006KT 10SM CLR M03/M14 A3054 RMK AO2 T10291142
KSCR 151535Z AUTO 35004KT 10SM CLR M03/M14 A3055 RMK AO2 T10331137
KSCR 151515Z AUTO 33006KT 10SM CLR M04/M14 A3055 RMK AO2 T10421140
KSCR 151455Z AUTO 02007KT 10SM CLR M05/M13 A3055 RMK AO2 T10461135
KSCR 151435Z AUTO 36008KT 340V050 10SM CLR M05/M14 A3054 RMK AO2 T10541136
KSCR 151415Z AUTO 01008KT 10SM CLR M06/M14 A3054 RMK AO2 T10601136
KSCR 151355Z AUTO 36005KT 10SM CLR M07/M14 A3054 RMK AO2 T10671138
KSCR 151335Z AUTO 36006KT 10SM CLR M07/M14 A3055 RMK AO2 T10751142
KSCR 151315Z AUTO 36003KT 10SM CLR M08/M14 A3055 RMK AO2 T10821142
KSCR 151255Z AUTO 36003KT 10SM CLR M09/M14 A3054 RMK AO2 T10901142
KSCR 151235Z AUTO 00000KT 10SM CLR M09/M14 A3053 RMK AO2 T10951145
KSCR 151215Z AUTO 36003KT 10SM CLR M09/M14 A3052 RMK AO2 T10931145
KSCR 151155Z AUTO 35003KT 10SM CLR M09/M14 A3052 RMK AO2 T10921145 11070 21092
KSCR 151135Z AUTO 36004KT 10SM CLR M09/M14 A3050 RMK AO2 T10921145
KSCR 151115Z AUTO 34003KT 10SM CLR M09/M15 A3050 RMK AO2 T10901147
KSCR 151055Z AUTO 36003KT 10SM CLR M09/M15 A3050 RMK AO2 T10901147